createdAt,value
2023-05-15T00:01:30.923Z,17.90
2023-05-15T00:03:57.723Z,17.80
2023-05-15T00:06:24.643Z,17.80
2023-05-15T00:08:51.472Z,17.80
2023-05-15T00:11:18.311Z,17.80
2023-05-15T00:13:45.130Z,17.80
2023-05-15T00:16:12.150Z,17.70
2023-05-15T00:18:39.174Z,17.70
2023-05-15T00:21:06.073Z,17.70
2023-05-15T00:23:32.907Z,17.70
2023-05-15T00:25:59.795Z,17.70
2023-05-15T00:28:26.667Z,17.70
2023-05-15T00:30:54.061Z,17.60
2023-05-15T00:33:20.943Z,17.70
2023-05-15T00:35:47.868Z,17.70
2023-05-15T00:38:14.693Z,17.60
2023-05-15T00:40:43.129Z,17.60
2023-05-15T00:43:11.713Z,17.60
2023-05-15T00:45:40.726Z,17.60
2023-05-15T00:48:10.249Z,17.60
2023-05-15T00:50:38.532Z,17.60
2023-05-15T00:53:06.189Z,17.60
2023-05-15T00:55:34.154Z,17.50
2023-05-15T00:58:02.428Z,17.50
2023-05-15T01:00:31.726Z,17.50
2023-05-15T01:02:59.406Z,17.50
2023-05-15T01:05:26.635Z,17.50
2023-05-15T01:08:08.460Z,17.50
2023-05-15T01:10:36.133Z,17.50
2023-05-15T01:13:04.034Z,17.40
2023-05-15T01:15:30.878Z,17.40
2023-05-15T01:17:57.702Z,17.40
2023-05-15T01:20:26.945Z,17.40
2023-05-15T01:23:06.258Z,17.40
2023-05-15T01:25:54.225Z,17.40
2023-05-15T01:28:43.815Z,17.40
2023-05-15T01:31:19.126Z,17.40
2023-05-15T01:33:50.974Z,17.40
2023-05-15T01:36:39.146Z,17.40
2023-05-15T01:39:07.751Z,17.40
2023-05-15T01:42:08.361Z,17.40
2023-05-15T01:44:38.376Z,17.40
2023-05-15T01:47:13.191Z,17.40
2023-05-15T01:49:42.163Z,17.40
2023-05-15T01:52:26.442Z,17.40
2023-05-15T01:54:54.713Z,17.40
2023-05-15T01:57:23.491Z,17.40
2023-05-15T01:59:51.673Z,17.40
2023-05-15T02:02:19.904Z,17.40
2023-05-15T02:04:47.706Z,17.40
2023-05-15T02:07:16.018Z,17.40
2023-05-15T02:09:43.775Z,17.40
2023-05-15T02:12:11.833Z,17.40
2023-05-15T02:14:41.095Z,17.40
2023-05-15T02:17:07.986Z,17.40
2023-05-15T02:19:35.078Z,17.30
2023-05-15T02:22:01.894Z,17.40
2023-05-15T02:24:28.754Z,17.40
2023-05-15T02:27:08.710Z,17.40
2023-05-15T02:29:53.731Z,17.40
2023-05-15T02:32:29.666Z,17.40
2023-05-15T02:35:12.763Z,17.40
2023-05-15T02:37:41.910Z,17.40
2023-05-15T02:40:12.135Z,17.40
2023-05-15T02:42:40.537Z,17.30
2023-05-15T02:45:09.676Z,17.30
2023-05-15T02:47:37.169Z,17.40
2023-05-15T02:50:05.226Z,17.40
2023-05-15T02:52:34.544Z,17.40
2023-05-15T02:55:01.708Z,17.30
2023-05-15T02:57:28.622Z,17.40
2023-05-15T02:59:57.394Z,17.40
2023-05-15T03:02:24.362Z,17.40
2023-05-15T03:04:51.332Z,17.40
2023-05-15T03:07:18.241Z,17.40
2023-05-15T03:09:45.137Z,17.30
2023-05-15T03:12:11.957Z,17.30
2023-05-15T03:14:38.729Z,17.30
2023-05-15T03:17:05.644Z,17.40
2023-05-15T03:19:32.630Z,17.30
2023-05-15T03:21:59.433Z,17.30
2023-05-15T03:24:26.250Z,17.30
2023-05-15T03:26:53.102Z,17.30
2023-05-15T03:29:20.157Z,17.30
2023-05-15T03:31:47.012Z,17.30
2023-05-15T03:34:13.875Z,17.30
2023-05-15T03:36:40.894Z,17.30
2023-05-15T03:39:07.792Z,17.20
2023-05-15T03:41:34.642Z,17.20
2023-05-15T03:44:01.500Z,17.20
2023-05-15T03:46:28.405Z,17.20
2023-05-15T03:48:56.149Z,17.20
2023-05-15T03:51:23.943Z,17.10
2023-05-15T03:53:50.859Z,17.10
2023-05-15T03:56:18.173Z,17.10
2023-05-15T03:58:45.034Z,17.10
2023-05-15T04:01:11.859Z,17.10
2023-05-15T04:03:38.772Z,17.10
2023-05-15T04:06:06.005Z,17.10
2023-05-15T04:08:32.840Z,17.00
2023-05-15T04:10:59.710Z,17.00
2023-05-15T04:13:26.622Z,17.00
2023-05-15T04:15:54.133Z,17.00
2023-05-15T04:18:21.089Z,17.00
2023-05-15T04:20:47.928Z,16.90
2023-05-15T04:23:14.742Z,16.90
2023-05-15T04:25:46.310Z,16.90
2023-05-15T04:28:13.874Z,16.90
2023-05-15T04:30:40.900Z,16.90
2023-05-15T04:33:08.233Z,16.90
2023-05-15T04:35:35.273Z,17.00
2023-05-15T04:38:02.399Z,17.00
2023-05-15T04:40:29.371Z,16.90
2023-05-15T04:42:56.469Z,17.00
2023-05-15T04:45:24.988Z,17.00
2023-05-15T04:47:52.089Z,16.90
2023-05-15T04:50:18.948Z,16.90
2023-05-15T04:52:45.828Z,17.00
2023-05-15T04:55:12.778Z,17.00
2023-05-15T04:57:39.744Z,17.00
2023-05-15T05:00:12.948Z,16.90
2023-05-15T05:02:40.319Z,16.90
2023-05-15T05:05:07.837Z,16.90
2023-05-15T05:07:35.641Z,16.90
2023-05-15T05:10:03.269Z,16.90
2023-05-15T05:12:30.128Z,16.90
2023-05-15T05:14:56.930Z,16.90
2023-05-15T05:17:24.002Z,16.90
2023-05-15T05:19:50.983Z,16.90
2023-05-15T05:22:17.831Z,16.90
2023-05-15T05:24:44.626Z,16.90
2023-05-15T05:27:11.913Z,16.90
2023-05-15T05:29:40.073Z,16.90
2023-05-15T05:32:07.853Z,16.90
2023-05-15T05:34:35.079Z,16.90
2023-05-15T05:37:01.909Z,16.90
2023-05-15T05:39:28.744Z,17.00
2023-05-15T05:41:55.956Z,16.90
2023-05-15T05:44:22.838Z,17.00
2023-05-15T05:46:49.681Z,17.00
2023-05-15T05:49:16.509Z,17.00
2023-05-15T05:51:45.208Z,17.00
2023-05-15T05:54:12.145Z,17.00
2023-05-15T05:56:39.000Z,17.00
2023-05-15T05:59:06.657Z,17.00
2023-05-15T06:01:33.601Z,17.00
2023-05-15T06:04:00.481Z,17.00
2023-05-15T06:06:27.497Z,17.00
2023-05-15T06:08:56.161Z,17.00
2023-05-15T06:11:25.277Z,17.00
2023-05-15T06:13:52.845Z,17.00
2023-05-15T06:16:19.817Z,17.00
2023-05-15T06:18:46.817Z,17.00
2023-05-15T06:21:13.661Z,17.00
2023-05-15T06:23:40.614Z,17.00
2023-05-15T06:26:07.492Z,17.00
2023-05-15T06:28:34.558Z,17.00
2023-05-15T06:31:01.515Z,17.00
2023-05-15T06:33:28.471Z,16.90
2023-05-15T06:35:55.393Z,16.90
2023-05-15T06:38:22.264Z,16.90
2023-05-15T06:40:49.179Z,16.80
2023-05-15T06:43:16.094Z,16.80
2023-05-15T06:45:42.989Z,16.80
2023-05-15T06:48:09.887Z,16.80
2023-05-15T06:50:36.801Z,16.80
2023-05-15T06:53:04.094Z,16.70
2023-05-15T06:55:31.025Z,16.80
2023-05-15T06:57:57.877Z,16.80
2023-05-15T07:00:24.706Z,16.80
2023-05-15T07:02:51.612Z,16.80
2023-05-15T07:05:18.483Z,16.80
2023-05-15T07:07:46.118Z,16.80
2023-05-15T07:10:12.980Z,16.80
2023-05-15T07:12:39.807Z,16.80
2023-05-15T07:15:07.127Z,16.80
2023-05-15T07:17:34.392Z,16.80
2023-05-15T07:20:01.449Z,16.80
2023-05-15T07:22:29.361Z,16.80
2023-05-15T07:24:56.380Z,16.80
2023-05-15T07:27:23.186Z,16.80
2023-05-15T07:29:50.170Z,16.80
2023-05-15T07:32:17.158Z,16.80
2023-05-15T07:34:44.178Z,16.70
2023-05-15T07:37:11.130Z,16.80
2023-05-15T07:39:38.145Z,16.70
2023-05-15T07:42:05.184Z,16.70
2023-05-15T07:44:32.069Z,16.70
2023-05-15T07:46:59.079Z,16.70
2023-05-15T07:49:26.078Z,16.70
2023-05-15T07:51:52.908Z,16.80
2023-05-15T07:54:19.697Z,16.80
2023-05-15T07:56:46.566Z,16.80
2023-05-15T07:59:13.475Z,16.70
2023-05-15T08:01:40.435Z,16.70
2023-05-15T08:04:09.325Z,16.70
2023-05-15T08:06:38.410Z,16.70
2023-05-15T08:09:05.463Z,16.70
2023-05-15T08:11:32.289Z,16.70
2023-05-15T08:13:59.153Z,16.80
2023-05-15T08:16:26.229Z,16.80
2023-05-15T08:18:55.897Z,16.90
2023-05-15T08:21:22.759Z,17.00
2023-05-15T08:23:50.731Z,17.00
2023-05-15T08:26:17.588Z,17.00
2023-05-15T08:28:44.561Z,17.20
2023-05-15T08:31:11.570Z,17.20
2023-05-15T08:33:38.508Z,17.30
2023-05-15T08:36:05.806Z,17.50
2023-05-15T08:38:32.718Z,17.60
2023-05-15T08:41:11.131Z,17.80
2023-05-15T08:43:39.404Z,18.00
2023-05-15T08:46:06.982Z,18.20
2023-05-15T08:48:37.488Z,18.40
2023-05-15T08:51:08.745Z,18.60
2023-05-15T08:53:35.952Z,18.70
2023-05-15T08:56:03.425Z,18.80
2023-05-15T08:58:31.107Z,18.90
2023-05-15T09:00:59.006Z,19.00
2023-05-15T09:03:26.459Z,19.00
2023-05-15T09:05:54.754Z,19.10
2023-05-15T09:08:25.843Z,19.20
2023-05-15T09:10:54.115Z,19.30
2023-05-15T09:13:20.941Z,19.30
2023-05-15T09:15:48.417Z,19.30
2023-05-15T09:18:16.764Z,19.20
2023-05-15T09:20:43.699Z,19.30
2023-05-15T09:23:27.903Z,19.30
2023-05-15T09:25:56.964Z,19.40
2023-05-15T09:28:30.739Z,19.60
2023-05-15T09:31:03.034Z,19.70
2023-05-15T09:33:34.040Z,19.80
2023-05-15T09:36:02.122Z,19.90
2023-05-15T09:38:29.132Z,19.90
2023-05-15T09:41:04.138Z,20.00
2023-05-15T09:43:35.667Z,20.20
2023-05-15T09:46:02.851Z,20.30
2023-05-15T09:48:31.731Z,20.30
2023-05-15T09:50:58.789Z,20.40
2023-05-15T09:53:25.650Z,20.50
2023-05-15T09:55:53.563Z,20.50
2023-05-15T09:58:20.429Z,20.50
2023-05-15T10:00:49.668Z,20.50
2023-05-15T10:03:19.880Z,20.50
2023-05-15T10:05:46.886Z,20.60
2023-05-15T10:08:15.960Z,20.60
2023-05-15T10:10:43.739Z,20.60
2023-05-15T10:13:12.074Z,20.60
2023-05-15T10:15:43.252Z,20.70
2023-05-15T10:18:10.515Z,20.70
2023-05-15T10:20:38.869Z,20.70
2023-05-15T10:23:08.707Z,20.70
2023-05-15T10:25:46.102Z,20.70
2023-05-15T10:28:14.279Z,20.80
2023-05-15T10:30:43.100Z,20.80
2023-05-15T10:33:13.839Z,20.80
2023-05-15T10:35:40.937Z,20.90
2023-05-15T10:38:08.452Z,21.00
2023-05-15T10:40:37.925Z,21.00
2023-05-15T10:43:06.081Z,21.00
2023-05-15T10:45:34.293Z,21.00
2023-05-15T10:48:03.050Z,21.00
2023-05-15T10:50:29.995Z,21.10
2023-05-15T10:52:57.111Z,21.20
2023-05-15T10:55:24.256Z,21.20
2023-05-15T10:57:51.939Z,21.20
2023-05-15T11:00:31.396Z,21.30
2023-05-15T11:02:58.958Z,21.30
2023-05-15T11:05:30.937Z,21.30
2023-05-15T11:08:18.010Z,21.30
2023-05-15T11:10:45.235Z,21.40
2023-05-15T11:13:12.254Z,21.40
2023-05-15T11:15:44.379Z,21.40
2023-05-15T11:18:11.816Z,21.50
2023-05-15T11:20:42.654Z,21.50
2023-05-15T11:23:09.625Z,21.50
2023-05-15T11:25:37.489Z,21.40
2023-05-15T11:28:05.324Z,21.40
2023-05-15T11:30:37.902Z,21.50
2023-05-15T11:33:11.897Z,21.50
2023-05-15T11:35:40.035Z,21.50
2023-05-15T11:38:09.857Z,21.50
2023-05-15T11:40:53.379Z,21.50
2023-05-15T11:43:30.891Z,21.50
2023-05-15T11:46:04.758Z,21.50
2023-05-15T11:48:36.013Z,21.50
2023-05-15T11:51:04.423Z,21.50
2023-05-15T11:53:32.889Z,21.50
2023-05-15T11:55:59.783Z,21.50
2023-05-15T11:58:26.808Z,21.50
2023-05-15T12:00:54.072Z,21.60
2023-05-15T12:03:26.861Z,21.60
2023-05-15T12:05:59.092Z,21.60
2023-05-15T12:08:34.697Z,21.60
2023-05-15T12:11:02.527Z,21.60
2023-05-15T12:13:30.959Z,21.70
2023-05-15T12:15:58.742Z,21.70
2023-05-15T12:18:25.737Z,21.70
2023-05-15T12:20:53.711Z,21.60
2023-05-15T12:23:25.404Z,21.60
2023-05-15T12:25:56.959Z,21.60
2023-05-15T12:28:24.042Z,21.60
2023-05-15T12:30:51.489Z,21.60
2023-05-15T12:33:18.920Z,21.60
2023-05-15T12:35:53.663Z,21.60
2023-05-15T12:38:22.483Z,21.60
2023-05-15T12:40:53.717Z,21.50
2023-05-15T12:43:23.668Z,21.50
2023-05-15T12:45:53.462Z,21.50
2023-05-15T12:48:21.829Z,21.50
2023-05-15T12:50:50.044Z,21.50
2023-05-15T12:53:17.367Z,21.50
2023-05-15T12:55:47.609Z,21.50
2023-05-15T12:58:18.775Z,21.50
2023-05-15T13:00:50.299Z,21.50
2023-05-15T13:03:20.314Z,21.50
2023-05-15T13:05:47.478Z,21.50
2023-05-15T13:08:18.446Z,21.50
2023-05-15T13:10:46.520Z,21.50
2023-05-15T13:13:13.903Z,21.50
2023-05-15T13:15:45.350Z,21.50
2023-05-15T13:18:14.675Z,21.50
2023-05-15T13:20:44.173Z,21.40
2023-05-15T13:23:15.117Z,21.40
2023-05-15T13:25:42.850Z,21.30
2023-05-15T13:28:13.674Z,21.30
2023-05-15T13:30:44.214Z,21.30
2023-05-15T13:33:12.791Z,21.30
2023-05-15T13:35:41.365Z,21.40
2023-05-15T13:38:11.154Z,21.40
2023-05-15T13:40:38.725Z,21.40
2023-05-15T13:43:08.751Z,21.40
2023-05-15T13:45:35.845Z,21.40
2023-05-15T13:48:03.132Z,21.40
2023-05-15T13:50:30.204Z,21.40
2023-05-15T13:52:57.118Z,21.30
2023-05-15T13:55:25.785Z,21.30
2023-05-15T13:57:53.372Z,21.30
2023-05-15T14:00:21.089Z,21.20
2023-05-15T14:02:48.094Z,21.20
2023-05-15T14:05:17.035Z,21.10
2023-05-15T14:07:43.893Z,21.10
2023-05-15T14:10:11.375Z,21.10
2023-05-15T14:12:38.940Z,21.10
2023-05-15T14:15:06.629Z,21.10
2023-05-15T14:17:36.594Z,21.00
2023-05-15T14:20:05.184Z,21.00
2023-05-15T14:22:32.189Z,21.00
2023-05-15T14:24:59.050Z,20.90
2023-05-15T14:27:25.908Z,21.00
2023-05-15T14:29:52.725Z,21.00
2023-05-15T14:32:19.632Z,20.90
2023-05-15T14:34:46.644Z,21.00
2023-05-15T14:37:16.386Z,21.00
2023-05-15T14:39:43.352Z,21.00
2023-05-15T14:42:11.007Z,21.00
2023-05-15T14:44:38.015Z,21.00
2023-05-15T14:47:07.007Z,21.10
2023-05-15T14:49:34.388Z,21.00
2023-05-15T14:52:01.295Z,21.00
2023-05-15T14:54:28.459Z,21.10
2023-05-15T14:56:56.924Z,21.00
2023-05-15T14:59:25.532Z,21.10
2023-05-15T15:01:52.390Z,21.10
2023-05-15T15:04:19.340Z,21.10
2023-05-15T15:06:47.864Z,21.10
2023-05-15T15:09:15.004Z,21.10
2023-05-15T15:11:43.564Z,21.10
2023-05-15T15:14:10.599Z,21.10
2023-05-15T15:16:37.764Z,21.20
2023-05-15T15:19:04.740Z,21.20
2023-05-15T15:21:31.591Z,21.20
2023-05-15T15:23:58.498Z,21.20
2023-05-15T15:26:26.091Z,21.10
2023-05-15T15:28:52.973Z,21.10
2023-05-15T15:31:21.056Z,21.10
2023-05-15T15:33:48.484Z,21.00
2023-05-15T15:36:15.332Z,21.10
2023-05-15T15:38:43.900Z,21.10
2023-05-15T15:41:10.871Z,21.10
2023-05-15T15:43:37.684Z,21.10
2023-05-15T15:46:04.718Z,21.10
2023-05-15T15:48:31.605Z,21.10
2023-05-15T15:50:58.507Z,21.00
2023-05-15T15:53:26.454Z,21.00
2023-05-15T15:55:53.269Z,20.90
2023-05-15T15:58:20.178Z,20.90
2023-05-15T16:00:47.025Z,20.80
2023-05-15T16:03:13.933Z,20.70
2023-05-15T16:05:40.868Z,20.70
2023-05-15T16:08:07.698Z,20.70
2023-05-15T16:10:34.553Z,20.70
2023-05-15T16:13:01.342Z,20.60
2023-05-15T16:15:28.387Z,20.60
2023-05-15T16:17:55.381Z,20.60
2023-05-15T16:20:22.924Z,20.50
2023-05-15T16:22:50.017Z,20.50
2023-05-15T16:25:17.004Z,20.50
2023-05-15T16:27:43.902Z,20.40
2023-05-15T16:30:11.763Z,20.40
2023-05-15T16:32:39.658Z,20.30
2023-05-15T16:35:07.783Z,20.30
2023-05-15T16:37:34.643Z,20.30
2023-05-15T16:40:04.935Z,20.20
2023-05-15T16:42:36.429Z,20.20
2023-05-15T16:45:03.987Z,20.30
2023-05-15T16:47:30.963Z,22.10
2023-05-15T16:49:57.941Z,20.10
2023-05-15T16:52:24.974Z,20.00
2023-05-15T16:54:54.139Z,20.00
2023-05-15T17:00:58.034Z,19.90
2023-05-15T17:03:24.921Z,19.90
2023-05-15T17:05:52.105Z,19.80
2023-05-15T17:08:18.906Z,19.80
2023-05-15T17:10:45.697Z,19.80
2023-05-15T17:13:12.489Z,19.70
2023-05-15T17:15:39.356Z,19.70
2023-05-15T17:18:06.346Z,19.70
2023-05-15T17:20:33.195Z,19.70
2023-05-15T17:23:00.023Z,19.60
2023-05-15T17:25:27.133Z,19.60
2023-05-15T17:27:54.360Z,19.60
2023-05-15T17:30:21.322Z,19.50
2023-05-15T17:32:48.125Z,19.50
2023-05-15T17:35:16.221Z,19.50
2023-05-15T17:37:46.105Z,19.50
2023-05-15T17:40:24.991Z,19.50
2023-05-15T17:42:57.020Z,19.50
2023-05-15T17:45:24.782Z,19.50
2023-05-15T17:48:00.908Z,19.50
2023-05-15T17:50:28.377Z,19.50
2023-05-15T17:52:56.245Z,19.60
2023-05-15T17:55:23.666Z,19.50
2023-05-15T17:57:54.201Z,19.50
2023-05-15T18:00:22.048Z,19.50
2023-05-15T18:02:50.004Z,19.50
2023-05-15T18:05:19.523Z,19.50
2023-05-15T18:07:53.318Z,19.40
2023-05-15T18:10:21.933Z,19.40
2023-05-15T18:12:49.199Z,19.30
2023-05-15T18:15:16.331Z,19.30
2023-05-15T18:17:44.174Z,19.30
2023-05-15T18:20:17.442Z,19.30
2023-05-15T18:22:46.190Z,19.20
2023-05-15T18:25:13.297Z,19.10
2023-05-15T18:27:55.840Z,19.10
2023-05-15T18:30:28.417Z,19.10
2023-05-15T18:33:07.513Z,19.10
2023-05-15T18:35:36.052Z,19.00
2023-05-15T18:38:03.880Z,19.00
2023-05-15T18:40:30.912Z,18.90
2023-05-15T18:42:57.997Z,18.90
2023-05-15T18:45:26.925Z,18.80
2023-05-15T18:47:55.176Z,18.80
2023-05-15T18:50:24.414Z,18.70
2023-05-15T18:52:52.557Z,18.70
2023-05-15T18:55:20.964Z,18.60
2023-05-15T18:57:48.149Z,18.60
2023-05-15T19:00:23.708Z,18.50
2023-05-15T19:03:00.788Z,18.50
2023-05-15T19:05:28.047Z,18.50
2023-05-15T19:07:56.360Z,18.40
2023-05-15T19:10:23.179Z,18.30
2023-05-15T19:12:52.310Z,18.20
2023-05-15T19:15:19.864Z,18.20
2023-05-15T19:17:48.202Z,18.30
2023-05-15T19:20:15.219Z,18.20
2023-05-15T19:22:42.022Z,18.20
2023-05-15T19:25:10.953Z,18.10
2023-05-15T19:27:37.968Z,18.10
2023-05-15T19:30:07.120Z,18.10
2023-05-15T19:32:34.837Z,18.10
2023-05-15T19:35:02.063Z,18.10
2023-05-15T19:37:29.123Z,18.00
2023-05-15T19:39:56.964Z,18.00
2023-05-15T19:42:23.816Z,17.90
2023-05-15T19:44:50.686Z,17.90
2023-05-15T19:47:17.503Z,17.90
2023-05-15T19:49:44.421Z,17.80
2023-05-15T19:52:11.227Z,17.80
2023-05-15T19:54:38.047Z,17.80
2023-05-15T19:57:05.067Z,17.70
2023-05-15T19:59:31.913Z,17.70
2023-05-15T20:01:58.790Z,17.70
2023-05-15T20:04:26.140Z,17.70
2023-05-15T20:06:54.475Z,17.60
2023-05-15T20:09:21.424Z,17.60
2023-05-15T20:11:48.249Z,17.60
2023-05-15T20:14:15.438Z,17.50
2023-05-15T20:16:43.471Z,17.50
2023-05-15T20:19:11.219Z,17.50
2023-05-15T20:21:38.986Z,17.50
2023-05-15T20:24:07.042Z,17.40
2023-05-15T20:26:36.340Z,17.40
2023-05-15T20:29:03.843Z,17.40
2023-05-15T20:31:31.147Z,17.40
2023-05-15T20:33:57.948Z,17.30
2023-05-15T20:36:28.355Z,17.30
2023-05-15T20:38:55.958Z,17.30
2023-05-15T20:41:23.769Z,17.30
2023-05-15T20:43:50.658Z,17.30
2023-05-15T20:46:17.638Z,17.30
2023-05-15T20:48:44.609Z,17.20
2023-05-15T20:51:11.404Z,17.20
2023-05-15T20:53:38.165Z,17.20
2023-05-15T20:56:05.342Z,17.10
2023-05-15T20:58:32.100Z,17.10
2023-05-15T21:01:01.387Z,17.00
2023-05-15T21:03:29.454Z,17.10
2023-05-15T21:05:57.461Z,17.00
2023-05-15T21:08:24.639Z,17.00
2023-05-15T21:10:53.560Z,16.90
2023-05-15T21:13:20.615Z,16.90
2023-05-15T21:15:47.425Z,16.90
2023-05-15T21:18:14.428Z,16.90
2023-05-15T21:20:41.890Z,16.90
2023-05-15T21:23:08.823Z,16.90
2023-05-15T21:25:35.733Z,16.90
2023-05-15T21:28:02.689Z,16.90
2023-05-15T21:30:29.860Z,16.90
2023-05-15T21:32:56.714Z,16.90
2023-05-15T21:35:26.005Z,16.80
2023-05-15T21:37:52.780Z,16.80
2023-05-15T21:40:19.537Z,16.70
2023-05-15T21:42:47.877Z,16.70
2023-05-15T21:45:14.731Z,16.70
2023-05-15T21:47:41.586Z,16.70
2023-05-15T21:50:08.717Z,16.70
2023-05-15T21:52:35.487Z,16.60
2023-05-15T21:55:02.792Z,16.60
2023-05-15T21:57:29.799Z,16.60
2023-05-15T21:59:56.600Z,16.60
2023-05-15T22:02:23.730Z,16.60
2023-05-15T22:04:50.573Z,16.60
2023-05-15T22:07:17.674Z,16.50
2023-05-15T22:09:45.217Z,16.50
2023-05-15T22:12:12.120Z,16.50
2023-05-15T22:14:47.014Z,16.50
2023-05-15T22:17:26.443Z,16.40
2023-05-15T22:19:56.893Z,16.40
2023-05-15T22:22:23.688Z,16.40
2023-05-15T22:24:50.426Z,16.40
2023-05-15T22:27:18.408Z,16.40
2023-05-15T22:29:45.267Z,16.40
2023-05-15T22:32:12.042Z,16.30
2023-05-15T22:34:38.838Z,16.30
2023-05-15T22:37:06.115Z,16.30
2023-05-15T22:39:33.556Z,16.30
2023-05-15T22:42:01.961Z,16.30
2023-05-15T22:44:28.879Z,16.30
2023-05-15T22:46:56.038Z,16.20
2023-05-15T22:49:26.507Z,16.30
2023-05-15T22:51:57.470Z,16.30
2023-05-15T22:54:25.274Z,16.40
2023-05-15T22:56:52.947Z,16.40
2023-05-15T22:59:20.295Z,16.40
2023-05-15T23:01:47.889Z,16.30
2023-05-15T23:04:15.436Z,16.30
2023-05-15T23:06:42.299Z,16.30
2023-05-15T23:09:09.683Z,16.30
2023-05-15T23:11:37.919Z,16.20
2023-05-15T23:14:04.815Z,16.10
2023-05-15T23:16:31.891Z,16.10
2023-05-15T23:18:59.250Z,16.10
2023-05-15T23:21:27.593Z,16.10
2023-05-15T23:23:55.037Z,16.00
2023-05-15T23:26:22.197Z,16.00
2023-05-15T23:28:49.414Z,15.90
2023-05-15T23:31:16.284Z,15.90
2023-05-15T23:33:43.051Z,15.90
2023-05-15T23:36:09.973Z,15.90
2023-05-15T23:38:36.768Z,15.90
2023-05-15T23:41:03.814Z,15.90
2023-05-15T23:43:30.585Z,15.90
2023-05-15T23:45:57.384Z,15.90
2023-05-15T23:48:24.250Z,15.90
2023-05-15T23:50:52.663Z,15.80
2023-05-15T23:53:19.442Z,15.80
2023-05-15T23:55:47.671Z,15.80
2023-05-15T23:58:14.440Z,15.80
